createdAt,value
2018-07-30T00:00:33.178Z,4.80
2018-07-30T00:01:33.170Z,4.30
2018-07-30T00:02:33.159Z,4.70
2018-07-30T00:03:33.161Z,4.70
2018-07-30T00:04:33.133Z,4.60
2018-07-30T00:05:33.146Z,4.80
2018-07-30T00:06:33.113Z,4.50
2018-07-30T00:07:33.105Z,4.70
2018-07-30T00:08:33.104Z,4.40
2018-07-30T00:09:33.093Z,4.70
2018-07-30T00:10:33.089Z,4.40
2018-07-30T00:11:33.075Z,4.40
2018-07-30T00:12:33.053Z,4.00
2018-07-30T00:13:33.034Z,4.30
2018-07-30T00:14:33.043Z,4.50
2018-07-30T00:15:33.037Z,5.00
2018-07-30T00:16:33.006Z,4.40
2018-07-30T00:17:32.996Z,4.00
2018-07-30T00:18:33.028Z,4.60
2018-07-30T00:19:32.974Z,4.30
2018-07-30T00:20:32.961Z,4.40
2018-07-30T00:21:33.048Z,4.50
2018-07-30T00:22:32.938Z,4.30
2018-07-30T00:23:32.928Z,4.70
2018-07-30T00:24:32.930Z,4.70
2018-07-30T00:25:32.909Z,4.60
2018-07-30T00:26:32.920Z,4.40
2018-07-30T00:27:32.884Z,4.20
2018-07-30T00:28:32.873Z,4.10
2018-07-30T00:29:32.893Z,4.30
2018-07-30T00:30:32.850Z,4.50
2018-07-30T00:31:32.965Z,4.00
2018-07-30T00:32:32.830Z,4.00
2018-07-30T00:33:32.838Z,4.30
2018-07-30T00:34:32.808Z,4.10
2018-07-30T00:35:32.839Z,4.00
2018-07-30T00:36:32.787Z,4.60
2018-07-30T00:37:32.778Z,4.30
2018-07-30T00:38:32.767Z,4.40
2018-07-30T00:39:32.761Z,4.20
2018-07-30T00:40:32.739Z,4.10
2018-07-30T00:41:32.751Z,4.10
2018-07-30T00:42:32.725Z,4.20
2018-07-30T00:43:32.713Z,4.60
2018-07-30T00:44:32.742Z,4.40
2018-07-30T00:45:32.705Z,4.40
2018-07-30T00:46:32.679Z,4.60
2018-07-30T00:47:32.663Z,4.70
2018-07-30T00:48:32.653Z,4.70
2018-07-30T00:49:32.641Z,4.80
2018-07-30T00:50:32.651Z,4.30
2018-07-30T00:51:32.651Z,4.60
2018-07-30T00:52:32.609Z,4.50
2018-07-30T00:53:32.613Z,4.80
2018-07-30T00:54:32.592Z,4.80
2018-07-30T00:55:32.577Z,4.50
2018-07-30T00:56:32.569Z,4.50
2018-07-30T00:57:32.578Z,4.70
2018-07-30T00:58:32.546Z,4.40
2018-07-30T00:59:32.536Z,4.20
2018-07-30T01:00:32.529Z,4.30
2018-07-30T01:01:32.514Z,4.80
2018-07-30T01:02:32.501Z,4.90
2018-07-30T01:03:32.506Z,4.60
2018-07-30T01:04:32.481Z,4.40
2018-07-30T01:05:32.475Z,4.90
2018-07-30T01:06:32.453Z,4.90
2018-07-30T01:07:32.495Z,4.60
2018-07-30T01:08:32.433Z,4.80
2018-07-30T01:09:32.438Z,4.90
2018-07-30T01:10:32.410Z,4.50
2018-07-30T01:11:32.432Z,4.60
2018-07-30T01:12:32.392Z,4.70
2018-07-30T01:13:32.399Z,4.40
2018-07-30T01:14:32.367Z,4.30
2018-07-30T01:15:32.355Z,4.60
2018-07-30T01:16:32.347Z,4.40
2018-07-30T01:17:32.332Z,4.20
2018-07-30T01:18:32.323Z,4.60
2018-07-30T01:19:32.336Z,4.90
2018-07-30T01:20:32.300Z,4.30
2018-07-30T01:21:32.304Z,4.60
2018-07-30T01:22:32.279Z,4.60
2018-07-30T01:23:32.269Z,4.80
2018-07-30T01:24:32.258Z,4.20
2018-07-30T01:25:32.263Z,4.70
2018-07-30T01:26:32.235Z,4.10
2018-07-30T01:27:32.225Z,4.60
2018-07-30T01:28:32.234Z,4.10
2018-07-30T01:29:32.207Z,4.30
2018-07-30T01:30:32.208Z,4.30
2018-07-30T01:31:32.179Z,4.40
2018-07-30T01:32:32.167Z,4.30
2018-07-30T01:33:32.154Z,4.30
2018-07-30T01:34:32.156Z,4.60
2018-07-30T01:35:32.133Z,4.40
2018-07-30T01:36:32.134Z,3.80
2018-07-30T01:37:32.110Z,4.10
2018-07-30T01:38:32.098Z,4.20
2018-07-30T01:39:32.114Z,3.60
2018-07-30T01:40:32.081Z,3.70
2018-07-30T01:41:32.063Z,3.80
2018-07-30T01:42:32.053Z,4.10
2018-07-30T01:43:32.042Z,3.90
2018-07-30T01:44:32.035Z,4.20
2018-07-30T01:45:32.047Z,4.10
2018-07-30T01:46:32.036Z,4.00
2018-07-30T01:47:32.003Z,3.50
2018-07-30T01:48:31.991Z,3.70
2018-07-30T01:49:31.974Z,3.90
2018-07-30T01:50:31.966Z,3.80
2018-07-30T01:51:31.953Z,4.30
2018-07-30T01:52:31.957Z,4.00
2018-07-30T01:53:31.929Z,4.00
2018-07-30T01:54:31.927Z,3.90
2018-07-30T01:55:31.974Z,4.40
2018-07-30T01:56:31.899Z,3.90
2018-07-30T01:57:31.903Z,3.70
2018-07-30T01:58:31.876Z,4.10
2018-07-30T01:59:31.864Z,3.80
2018-07-30T02:00:31.852Z,4.40
2018-07-30T02:01:31.846Z,4.20
2018-07-30T02:02:31.851Z,4.30
2018-07-30T02:03:31.822Z,4.10
2018-07-30T02:04:31.812Z,4.80
2018-07-30T02:05:31.824Z,3.80
2018-07-30T02:06:31.788Z,4.10
2018-07-30T02:07:31.805Z,4.00
2018-07-30T02:08:31.768Z,4.40
2018-07-30T02:09:31.754Z,3.70
2018-07-30T02:10:31.746Z,4.00
2018-07-30T02:11:31.734Z,4.80
2018-07-30T02:12:31.723Z,4.10
2018-07-30T02:13:31.727Z,4.00
2018-07-30T02:14:31.699Z,4.30
2018-07-30T02:15:31.691Z,4.00
2018-07-30T02:16:31.682Z,4.00
2018-07-30T02:17:31.669Z,4.70
2018-07-30T02:18:31.690Z,4.00
2018-07-30T02:19:31.645Z,4.00
2018-07-30T02:20:31.634Z,4.30
2018-07-30T02:21:31.683Z,3.90
2018-07-30T02:22:31.613Z,3.80
2018-07-30T02:23:31.600Z,4.00
2018-07-30T02:24:31.608Z,4.00
2018-07-30T02:25:31.578Z,3.90
2018-07-30T02:26:31.567Z,3.90
2018-07-30T02:27:38.382Z,4.00
2018-07-30T02:28:31.559Z,4.10
2018-07-30T02:29:31.556Z,4.40
2018-07-30T02:30:31.524Z,4.30
2018-07-30T02:31:31.513Z,3.90
2018-07-30T02:32:31.499Z,4.10
2018-07-30T02:33:31.490Z,4.50
2018-07-30T02:34:31.481Z,4.30
2018-07-30T02:35:31.528Z,4.40
2018-07-30T02:36:31.456Z,4.50
2018-07-30T02:37:31.447Z,4.10
2018-07-30T02:38:31.438Z,4.60
2018-07-30T02:39:31.426Z,4.40
2018-07-30T02:40:31.418Z,4.10
2018-07-30T02:41:31.428Z,4.10
2018-07-30T02:42:31.395Z,4.30
2018-07-30T02:43:31.379Z,4.50
2018-07-30T02:44:31.368Z,4.50
2018-07-30T02:45:31.372Z,5.10
2018-07-30T02:46:31.348Z,4.30
2018-07-30T02:47:31.347Z,4.50
2018-07-30T02:48:31.337Z,5.00
2018-07-30T02:49:31.316Z,4.40
2018-07-30T02:50:31.319Z,4.80
2018-07-30T02:51:31.291Z,4.50
2018-07-30T02:52:31.278Z,4.90
2018-07-30T02:53:31.268Z,4.60
2018-07-30T02:54:31.256Z,4.70
2018-07-30T02:55:31.272Z,4.60
2018-07-30T02:56:31.232Z,5.00
2018-07-30T02:57:31.230Z,4.50
2018-07-30T02:58:31.209Z,4.60
2018-07-30T02:59:31.200Z,4.90
2018-07-30T03:00:31.188Z,5.00
2018-07-30T03:01:31.191Z,4.90
2018-07-30T03:02:31.167Z,5.10
2018-07-30T03:03:31.162Z,5.10
2018-07-30T03:04:31.146Z,4.60
2018-07-30T03:05:31.134Z,4.90
2018-07-30T03:06:31.137Z,4.90
2018-07-30T03:07:31.116Z,4.80
2018-07-30T03:08:31.098Z,5.00
2018-07-30T03:09:31.091Z,4.70
2018-07-30T03:10:31.075Z,4.90
2018-07-30T03:11:31.088Z,5.10
2018-07-30T03:12:31.056Z,4.90
2018-07-30T03:13:31.042Z,5.30
2018-07-30T03:14:31.035Z,5.20
2018-07-30T03:15:31.020Z,4.80
2018-07-30T03:16:31.080Z,5.00
2018-07-30T03:17:31.016Z,5.40
2018-07-30T03:18:30.991Z,5.00
2018-07-30T03:19:30.994Z,4.90
2018-07-30T03:20:30.963Z,5.20
2018-07-30T03:21:30.952Z,5.10
2018-07-30T03:22:30.942Z,5.00
2018-07-30T03:23:30.949Z,4.90
2018-07-30T03:24:30.941Z,4.90
2018-07-30T03:25:30.913Z,5.00
2018-07-30T03:26:30.902Z,4.60
2018-07-30T03:27:30.890Z,5.20
2018-07-30T03:28:30.896Z,5.30
2018-07-30T03:29:30.884Z,5.20
2018-07-30T03:30:30.856Z,5.00
2018-07-30T03:31:30.850Z,4.90
2018-07-30T03:32:30.833Z,5.10
2018-07-30T03:33:30.822Z,4.80
2018-07-30T03:34:30.840Z,5.20
2018-07-30T03:35:30.818Z,5.20
2018-07-30T03:36:30.788Z,5.10
2018-07-30T03:37:30.777Z,5.20
2018-07-30T03:38:30.769Z,5.30
2018-07-30T03:39:30.756Z,5.10
2018-07-30T03:40:30.762Z,5.20
2018-07-30T03:41:30.734Z,5.20
2018-07-30T03:42:30.722Z,4.80
2018-07-30T03:43:30.710Z,5.40
2018-07-30T03:44:30.703Z,5.10
2018-07-30T03:45:30.711Z,5.50
2018-07-30T03:46:30.684Z,5.30
2018-07-30T03:47:30.671Z,5.00
2018-07-30T03:48:30.661Z,5.60
2018-07-30T03:49:30.649Z,5.40
2018-07-30T03:50:30.639Z,5.10
2018-07-30T03:51:30.642Z,5.10
2018-07-30T03:52:30.613Z,5.20
2018-07-30T03:53:30.614Z,5.10
2018-07-30T03:54:30.587Z,5.20
2018-07-30T03:55:30.578Z,5.40
2018-07-30T03:56:30.584Z,5.30
2018-07-30T03:57:30.557Z,5.50
2018-07-30T03:58:30.546Z,5.10
2018-07-30T03:59:30.537Z,5.10
2018-07-30T04:00:30.523Z,5.10
2018-07-30T04:01:30.531Z,5.60
2018-07-30T04:02:30.505Z,5.60
2018-07-30T04:03:30.488Z,5.00
2018-07-30T04:04:30.482Z,6.00
2018-07-30T04:05:30.476Z,5.10
2018-07-30T04:06:30.539Z,5.40
2018-07-30T04:07:30.446Z,5.40
2018-07-30T04:08:30.439Z,4.70
2018-07-30T04:09:30.425Z,5.10
2018-07-30T04:10:30.417Z,5.50
2018-07-30T04:11:30.422Z,5.20
2018-07-30T04:12:30.398Z,5.30
2018-07-30T04:13:30.384Z,5.40
2018-07-30T04:14:30.375Z,5.60
2018-07-30T04:15:30.365Z,5.20
2018-07-30T04:16:30.370Z,5.20
2018-07-30T04:17:30.341Z,5.40
2018-07-30T04:18:30.326Z,5.70
2018-07-30T04:19:30.313Z,5.10
2018-07-30T04:20:30.302Z,5.40
2018-07-30T04:21:30.303Z,4.70
2018-07-30T04:22:30.299Z,5.10
2018-07-30T04:23:30.267Z,4.90
2018-07-30T04:24:30.259Z,5.40
2018-07-30T04:25:30.246Z,5.30
2018-07-30T04:26:30.264Z,5.20
2018-07-30T04:27:30.229Z,5.10
2018-07-30T04:28:30.215Z,5.20
2018-07-30T04:29:30.200Z,5.30
2018-07-30T04:30:30.195Z,5.10
2018-07-30T04:31:30.181Z,5.10
2018-07-30T04:32:30.187Z,5.00
2018-07-30T04:33:30.172Z,4.80
2018-07-30T04:34:30.147Z,5.30
2018-07-30T04:35:30.165Z,5.20
2018-07-30T04:36:30.124Z,5.40
2018-07-30T04:37:30.118Z,5.20
2018-07-30T04:38:30.116Z,5.20
2018-07-30T04:39:30.092Z,5.00
2018-07-30T04:40:30.080Z,5.40
2018-07-30T04:41:30.067Z,5.30
2018-07-30T04:42:30.055Z,5.20
2018-07-30T04:43:30.091Z,4.90
2018-07-30T04:44:30.044Z,5.10
2018-07-30T04:45:30.038Z,5.00
2018-07-30T04:46:30.038Z,5.10
2018-07-30T04:47:30.011Z,5.10
2018-07-30T04:48:29.993Z,5.10
2018-07-30T04:49:29.984Z,4.70
2018-07-30T04:50:29.968Z,4.60
2018-07-30T04:51:29.961Z,5.00
2018-07-30T04:52:29.965Z,5.00
2018-07-30T04:53:29.959Z,5.30
2018-07-30T04:54:29.928Z,4.70
2018-07-30T04:55:29.923Z,5.00
2018-07-30T04:56:29.905Z,5.20
2018-07-30T04:57:29.942Z,4.90
2018-07-30T04:58:29.886Z,4.80
2018-07-30T04:59:29.891Z,5.00
2018-07-30T05:00:29.880Z,5.00
2018-07-30T05:01:29.876Z,4.80
2018-07-30T05:02:29.838Z,4.80
2018-07-30T05:03:29.828Z,5.00
2018-07-30T05:04:29.819Z,5.30
2018-07-30T05:05:29.813Z,5.20
2018-07-30T05:06:29.796Z,5.30
2018-07-30T05:07:29.800Z,4.40
2018-07-30T05:08:29.777Z,5.00
2018-07-30T05:09:29.764Z,4.80
2018-07-30T05:10:29.753Z,4.60
2018-07-30T05:11:29.740Z,5.00
2018-07-30T05:12:29.755Z,5.00
2018-07-30T05:13:29.725Z,4.90
2018-07-30T05:14:29.709Z,5.00
2018-07-30T05:15:29.696Z,4.90
2018-07-30T05:16:29.688Z,4.80
2018-07-30T05:17:29.681Z,4.70
2018-07-30T05:18:29.711Z,5.10
2018-07-30T05:19:29.800Z,4.90
2018-07-30T05:20:29.642Z,4.90
2018-07-30T05:21:29.632Z,4.90
2018-07-30T05:22:29.629Z,4.70
2018-07-30T05:23:29.613Z,4.90
2018-07-30T05:24:29.622Z,5.00
2018-07-30T05:25:30.423Z,4.70
2018-07-30T05:26:30.383Z,4.70
2018-07-30T05:27:29.570Z,4.70
2018-07-30T05:28:29.558Z,4.30
2018-07-30T05:29:29.548Z,4.70
2018-07-30T05:30:29.555Z,4.60
2018-07-30T05:31:29.528Z,4.40
2018-07-30T05:32:29.514Z,4.70
2018-07-30T05:33:29.534Z,4.80
2018-07-30T05:34:29.499Z,5.00
2018-07-30T05:35:29.485Z,4.70
2018-07-30T05:36:29.471Z,4.80
2018-07-30T05:37:29.463Z,4.90
2018-07-30T05:38:29.451Z,4.60
2018-07-30T05:39:29.458Z,4.70
2018-07-30T05:40:29.442Z,4.70
2018-07-30T05:41:29.419Z,4.50
2018-07-30T05:42:29.407Z,5.20
2018-07-30T05:43:29.398Z,5.20
2018-07-30T05:44:29.403Z,5.10
2018-07-30T05:45:29.372Z,5.10
2018-07-30T05:46:29.364Z,4.90
2018-07-30T05:47:29.350Z,5.10
2018-07-30T05:48:29.340Z,5.10
2018-07-30T05:49:29.353Z,5.40
2018-07-30T05:50:29.340Z,5.40
2018-07-30T05:51:29.307Z,5.20
2018-07-30T05:52:29.298Z,4.80
2018-07-30T05:53:29.286Z,5.10
2018-07-30T05:54:29.275Z,5.70
2018-07-30T05:55:29.279Z,5.70
2018-07-30T05:56:29.287Z,5.30
2018-07-30T05:57:29.257Z,4.80
2018-07-30T05:58:29.232Z,4.80
2018-07-30T05:59:29.279Z,5.20
2018-07-30T06:00:29.294Z,5.20
2018-07-30T06:01:29.198Z,5.10
2018-07-30T06:02:29.185Z,5.00
2018-07-30T06:03:29.174Z,5.10
2018-07-30T06:04:29.168Z,5.20
2018-07-30T06:05:29.169Z,5.00
2018-07-30T06:06:29.167Z,5.00
2018-07-30T06:07:29.134Z,4.60
2018-07-30T06:08:29.125Z,4.80
2018-07-30T06:09:29.125Z,5.20
2018-07-30T06:10:29.120Z,4.70
2018-07-30T06:11:29.091Z,4.40
2018-07-30T06:12:29.081Z,4.70
2018-07-30T06:13:29.075Z,4.60
2018-07-30T06:14:29.059Z,4.60
2018-07-30T06:15:29.067Z,4.70
2018-07-30T06:16:29.040Z,4.50
2018-07-30T06:17:29.041Z,4.40
2018-07-30T06:18:29.020Z,4.70
2018-07-30T06:19:29.007Z,4.80
2018-07-30T06:20:29.014Z,4.70
2018-07-30T06:21:28.980Z,4.60
2018-07-30T06:22:29.009Z,4.50
2018-07-30T06:23:28.959Z,4.20
2018-07-30T06:24:28.948Z,4.40
2018-07-30T06:25:28.938Z,4.40
2018-07-30T06:26:29.021Z,4.70
2018-07-30T06:27:28.969Z,4.50
2018-07-30T06:28:28.906Z,4.60
2018-07-30T06:29:28.892Z,4.20
2018-07-30T06:30:28.885Z,5.00
2018-07-30T06:31:28.893Z,4.80
2018-07-30T06:32:28.877Z,4.70
2018-07-30T06:33:28.868Z,4.50
2018-07-30T06:34:28.841Z,4.60
2018-07-30T06:35:28.848Z,4.40
2018-07-30T06:36:28.836Z,5.00
2018-07-30T06:37:28.806Z,5.00
2018-07-30T06:38:28.858Z,4.60
2018-07-30T06:39:28.788Z,4.40
2018-07-30T06:40:28.794Z,5.10
2018-07-30T06:41:28.787Z,4.60
2018-07-30T06:42:28.756Z,4.90
2018-07-30T06:43:28.746Z,4.50
2018-07-30T06:44:28.737Z,4.60
2018-07-30T06:45:28.725Z,4.00
2018-07-30T06:46:28.711Z,4.20
2018-07-30T06:47:28.719Z,4.30
2018-07-30T06:48:28.691Z,4.40
2018-07-30T06:49:28.680Z,4.50
2018-07-30T06:50:28.689Z,4.00
2018-07-30T06:51:28.699Z,3.90
2018-07-30T06:52:28.654Z,4.60
2018-07-30T06:53:28.651Z,4.50
2018-07-30T06:54:28.630Z,4.40
2018-07-30T06:55:28.619Z,4.20
2018-07-30T06:56:28.622Z,3.80
2018-07-30T06:57:28.649Z,4.20
2018-07-30T06:58:28.583Z,4.30
2018-07-30T06:59:28.574Z,3.90
2018-07-30T07:00:28.568Z,3.70
2018-07-30T07:01:28.550Z,3.70
2018-07-30T07:02:28.545Z,4.20
2018-07-30T07:03:28.548Z,4.20
2018-07-30T07:04:28.539Z,3.70
2018-07-30T07:05:28.513Z,3.70
2018-07-30T07:06:28.500Z,3.90
2018-07-30T07:07:28.504Z,3.70
2018-07-30T07:08:28.476Z,3.80
2018-07-30T07:09:28.470Z,3.80
2018-07-30T07:10:28.458Z,3.40
2018-07-30T07:11:28.446Z,4.00
2018-07-30T07:12:28.461Z,3.60
2018-07-30T07:13:28.425Z,3.50
2018-07-30T07:14:28.412Z,3.40
2018-07-30T07:15:28.405Z,3.40
2018-07-30T07:16:28.418Z,3.80
2018-07-30T07:17:28.384Z,3.60
2018-07-30T07:18:28.399Z,3.10
2018-07-30T07:19:28.359Z,3.10
2018-07-30T07:20:28.349Z,3.20
2018-07-30T07:21:28.402Z,3.20
2018-07-30T07:22:28.329Z,3.00
2018-07-30T07:23:28.317Z,2.90
2018-07-30T07:24:28.326Z,3.60
2018-07-30T07:25:28.293Z,2.90
2018-07-30T07:26:28.289Z,3.30
2018-07-30T07:27:28.275Z,3.50
2018-07-30T07:28:28.286Z,3.10
2018-07-30T07:29:28.253Z,3.10
2018-07-30T07:30:28.263Z,3.00
2018-07-30T07:31:28.230Z,3.50
2018-07-30T07:32:28.220Z,2.90
2018-07-30T07:33:28.250Z,3.30
2018-07-30T07:34:28.199Z,2.90
2018-07-30T07:35:28.197Z,3.20
2018-07-30T07:36:28.180Z,2.90
2018-07-30T07:37:28.171Z,3.30
2018-07-30T07:38:28.169Z,2.80
2018-07-30T07:39:28.192Z,2.80
2018-07-30T07:40:28.140Z,3.00
2018-07-30T07:41:28.124Z,3.20
2018-07-30T07:42:28.112Z,2.90
2018-07-30T07:43:28.106Z,3.20
2018-07-30T07:44:28.091Z,3.20
2018-07-30T07:45:28.104Z,2.80
2018-07-30T07:46:28.087Z,3.80
2018-07-30T07:47:28.062Z,3.00
2018-07-30T07:48:28.056Z,3.20
2018-07-30T07:49:28.061Z,2.90
2018-07-30T07:50:28.095Z,3.50
2018-07-30T07:51:28.047Z,3.10
2018-07-30T07:52:28.017Z,3.30
2018-07-30T07:53:27.999Z,3.70
2018-07-30T07:54:27.986Z,3.50
2018-07-30T07:55:27.981Z,3.00
2018-07-30T07:56:27.968Z,3.10
2018-07-30T07:57:27.970Z,3.20
2018-07-30T07:58:27.949Z,3.20
2018-07-30T07:59:27.935Z,3.00
2018-07-30T08:00:27.926Z,3.00
2018-07-30T08:01:27.914Z,3.10
2018-07-30T08:02:27.921Z,3.20
2018-07-30T08:03:27.890Z,2.80
2018-07-30T08:04:27.881Z,3.00
2018-07-30T08:05:27.871Z,2.70
2018-07-30T08:06:27.867Z,3.00
2018-07-30T08:07:27.863Z,2.70
2018-07-30T08:08:27.861Z,3.00
2018-07-30T08:09:27.843Z,2.70
2018-07-30T08:10:27.818Z,2.70
2018-07-30T08:11:27.807Z,2.90
2018-07-30T08:12:27.798Z,3.00
2018-07-30T08:13:27.787Z,2.60
2018-07-30T08:14:27.789Z,2.80
2018-07-30T08:15:27.775Z,3.10
2018-07-30T08:16:27.932Z,3.10
2018-07-30T08:17:27.752Z,3.00
2018-07-30T08:18:27.737Z,2.90
2018-07-30T08:19:27.742Z,2.80
2018-07-30T08:20:27.725Z,3.50
2018-07-30T08:21:27.703Z,3.20
2018-07-30T08:22:27.692Z,3.30
2018-07-30T08:23:27.683Z,2.70
2018-07-30T08:24:27.675Z,3.00
2018-07-30T08:25:27.678Z,2.80
2018-07-30T08:26:27.653Z,2.90
2018-07-30T08:27:27.641Z,2.80
2018-07-30T08:28:27.628Z,3.20
2018-07-30T08:29:27.620Z,2.70
2018-07-30T08:30:27.625Z,2.90
2018-07-30T08:31:27.619Z,3.10
2018-07-30T08:32:27.587Z,3.10
2018-07-30T08:33:27.592Z,2.90
2018-07-30T08:34:27.565Z,3.00
2018-07-30T08:35:27.571Z,3.10
2018-07-30T08:36:27.546Z,3.00
2018-07-30T08:37:27.538Z,3.40
2018-07-30T08:38:27.532Z,3.10
2018-07-30T08:39:27.521Z,3.40
2018-07-30T08:40:27.522Z,3.10
2018-07-30T08:41:27.500Z,3.20
2018-07-30T08:42:27.509Z,3.00
2018-07-30T08:43:27.481Z,3.00
2018-07-30T08:44:27.469Z,3.10
2018-07-30T08:45:27.453Z,3.10
2018-07-30T08:46:27.447Z,2.60
2018-07-30T08:47:27.474Z,2.80
2018-07-30T08:48:27.426Z,3.00
2018-07-30T08:49:27.414Z,2.80
2018-07-30T08:50:27.406Z,2.60
2018-07-30T08:51:27.404Z,3.10
2018-07-30T08:52:27.389Z,2.90
2018-07-30T08:53:27.397Z,2.80
2018-07-30T08:54:27.361Z,2.90
2018-07-30T08:55:27.356Z,2.90
2018-07-30T08:56:27.381Z,2.50
2018-07-30T08:57:27.333Z,2.60
2018-07-30T08:58:27.339Z,2.90
2018-07-30T08:59:27.314Z,2.90
2018-07-30T09:00:27.303Z,2.70
2018-07-30T09:01:27.296Z,2.60
2018-07-30T09:02:27.286Z,2.90
2018-07-30T09:03:27.292Z,2.80
2018-07-30T09:04:27.260Z,2.80
2018-07-30T09:05:27.253Z,2.80
2018-07-30T09:06:27.245Z,2.70
2018-07-30T09:07:27.231Z,2.80
2018-07-30T09:08:27.244Z,2.60
2018-07-30T09:09:27.214Z,2.90
2018-07-30T09:10:27.200Z,2.90
2018-07-30T09:11:27.190Z,2.80
2018-07-30T09:12:27.239Z,2.60
2018-07-30T09:13:27.169Z,2.70
2018-07-30T09:14:27.199Z,2.40
2018-07-30T09:15:27.151Z,2.70
2018-07-30T09:16:27.140Z,2.70
2018-07-30T09:17:27.128Z,2.90
2018-07-30T09:18:27.117Z,2.40
2018-07-30T09:19:27.111Z,2.60
2018-07-30T09:20:27.113Z,3.00
2018-07-30T09:21:27.090Z,3.00
2018-07-30T09:22:27.076Z,3.20
2018-07-30T09:23:27.067Z,2.90
2018-07-30T09:24:27.072Z,2.80
2018-07-30T09:25:27.053Z,3.00
2018-07-30T09:26:27.041Z,3.10
2018-07-30T09:27:27.031Z,3.10
2018-07-30T09:28:27.024Z,3.10
2018-07-30T09:29:27.024Z,3.00
2018-07-30T09:30:27.014Z,3.00
2018-07-30T09:31:26.993Z,2.90
2018-07-30T09:32:26.984Z,3.30
2018-07-30T09:33:26.973Z,3.10
2018-07-30T09:34:26.963Z,3.20
2018-07-30T09:35:26.969Z,3.00
2018-07-30T09:36:26.941Z,3.20
2018-07-30T09:37:26.932Z,3.00
2018-07-30T09:38:26.921Z,3.00
2018-07-30T09:39:26.956Z,2.70
2018-07-30T09:40:26.900Z,3.10
2018-07-30T09:41:26.910Z,3.20
2018-07-30T09:42:26.888Z,3.00
2018-07-30T09:43:26.868Z,3.10
2018-07-30T09:44:26.863Z,3.00
2018-07-30T09:45:26.849Z,3.20
2018-07-30T09:46:26.885Z,3.20
2018-07-30T09:47:26.833Z,3.10
2018-07-30T09:48:26.823Z,3.50
2018-07-30T09:49:26.811Z,3.30
2018-07-30T09:50:26.822Z,3.30
2018-07-30T09:51:26.790Z,3.20
2018-07-30T09:52:26.800Z,3.40
2018-07-30T09:53:26.774Z,3.00
2018-07-30T09:54:26.762Z,3.30
2018-07-30T09:55:26.759Z,3.20
2018-07-30T09:56:26.753Z,3.10
2018-07-30T09:57:26.767Z,3.20
2018-07-30T09:58:26.727Z,3.50
2018-07-30T09:59:26.716Z,3.30
2018-07-30T10:00:26.705Z,3.30
2018-07-30T10:01:26.700Z,3.00
2018-07-30T10:02:26.685Z,3.70
2018-07-30T10:03:26.696Z,3.40
2018-07-30T10:04:26.670Z,3.10
2018-07-30T10:05:26.659Z,3.30
2018-07-30T10:06:26.646Z,3.10
2018-07-30T10:07:26.708Z,3.20
2018-07-30T10:08:26.640Z,3.40
2018-07-30T10:09:26.638Z,2.90
2018-07-30T10:10:26.608Z,3.40
2018-07-30T10:11:26.620Z,3.20
2018-07-30T10:12:26.596Z,3.20
2018-07-30T10:13:26.586Z,3.20
2018-07-30T10:14:26.587Z,3.10
2018-07-30T10:15:26.617Z,3.20
2018-07-30T10:16:26.560Z,3.10
2018-07-30T10:17:26.574Z,3.30
2018-07-30T10:18:26.699Z,3.00
2018-07-30T10:19:26.532Z,3.10
2018-07-30T10:20:26.541Z,2.90
2018-07-30T10:21:26.515Z,3.20
2018-07-30T10:22:26.504Z,3.10
2018-07-30T10:23:26.500Z,2.90
2018-07-30T10:24:26.492Z,3.10
2018-07-30T10:25:26.483Z,2.70
2018-07-30T10:26:26.495Z,3.00
2018-07-30T10:27:26.463Z,2.90
2018-07-30T10:28:26.462Z,2.90
2018-07-30T10:29:26.447Z,3.10
2018-07-30T10:30:26.437Z,3.20
2018-07-30T10:31:26.478Z,3.30
2018-07-30T10:32:26.422Z,3.30
2018-07-30T10:33:26.414Z,3.20
2018-07-30T10:34:26.423Z,3.10
2018-07-30T10:35:26.398Z,2.90
2018-07-30T10:36:26.389Z,3.00
2018-07-30T10:37:26.399Z,3.50
2018-07-30T10:38:26.422Z,3.10
2018-07-30T10:39:26.360Z,3.40
2018-07-30T10:40:26.354Z,3.20
2018-07-30T10:41:26.344Z,3.20
2018-07-30T10:42:26.354Z,3.00
2018-07-30T10:43:26.326Z,3.00
2018-07-30T10:44:26.339Z,3.50
2018-07-30T10:45:26.321Z,3.20
2018-07-30T10:46:26.343Z,3.50
2018-07-30T10:47:26.290Z,3.60
2018-07-30T10:48:26.280Z,3.40
2018-07-30T10:49:26.285Z,3.40
2018-07-30T10:50:26.268Z,3.40
2018-07-30T10:51:26.256Z,3.30
2018-07-30T10:52:26.240Z,3.50
2018-07-30T10:53:26.235Z,3.30
2018-07-30T10:54:26.237Z,3.50
2018-07-30T10:55:26.211Z,3.50
2018-07-30T10:56:26.202Z,3.80
2018-07-30T10:57:26.195Z,3.30
2018-07-30T10:58:26.183Z,3.50
2018-07-30T10:59:26.191Z,3.30
2018-07-30T11:00:26.166Z,3.30
2018-07-30T11:01:26.159Z,3.10
2018-07-30T11:02:26.151Z,3.20
2018-07-30T11:03:26.138Z,3.20
2018-07-30T11:04:26.147Z,3.30
2018-07-30T11:05:26.124Z,3.10
2018-07-30T11:06:26.114Z,3.00
2018-07-30T11:07:26.110Z,3.10
2018-07-30T11:08:26.100Z,3.30
2018-07-30T11:09:26.775Z,3.20
2018-07-30T11:10:26.082Z,3.10
2018-07-30T11:11:26.073Z,3.00
2018-07-30T11:12:26.065Z,3.10
2018-07-30T11:13:26.077Z,2.90
2018-07-30T11:14:26.075Z,2.90
2018-07-30T11:15:26.079Z,3.00
2018-07-30T11:16:26.034Z,3.00
2018-07-30T11:17:26.028Z,3.10
2018-07-30T11:18:26.016Z,3.10
2018-07-30T11:19:26.008Z,3.40
2018-07-30T11:20:26.024Z,3.00
2018-07-30T11:21:26.020Z,3.10
2018-07-30T11:22:25.988Z,3.10
2018-07-30T11:23:25.981Z,2.90
2018-07-30T11:24:25.977Z,3.00
2018-07-30T11:25:25.991Z,3.40
2018-07-30T11:26:25.963Z,2.80
2018-07-30T11:27:25.982Z,2.90
2018-07-30T11:28:25.947Z,2.80
2018-07-30T11:29:25.938Z,2.80
2018-07-30T11:30:25.931Z,2.60
2018-07-30T11:31:25.923Z,2.80
2018-07-30T11:32:25.912Z,3.00
2018-07-30T11:33:25.951Z,2.60
2018-07-30T11:34:25.905Z,2.90
2018-07-30T11:35:25.895Z,3.20
2018-07-30T11:36:25.897Z,3.30
2018-07-30T11:37:25.884Z,2.90
2018-07-30T11:38:25.907Z,3.00
2018-07-30T11:39:25.866Z,3.30
2018-07-30T11:40:25.848Z,3.00
2018-07-30T11:41:25.857Z,3.40
2018-07-30T11:42:25.841Z,2.90
2018-07-30T11:43:25.825Z,2.90
2018-07-30T11:44:25.820Z,2.90
2018-07-30T11:45:25.814Z,2.90
2018-07-30T11:46:25.873Z,2.70
2018-07-30T11:47:25.802Z,2.70
2018-07-30T11:48:25.857Z,2.50
2018-07-30T11:49:25.784Z,2.70
2018-07-30T11:50:25.774Z,2.90
2018-07-30T11:51:25.771Z,2.80
2018-07-30T11:52:25.785Z,2.40
2018-07-30T11:53:25.752Z,2.80
2018-07-30T11:54:25.845Z,2.60
2018-07-30T11:55:25.745Z,2.70
2018-07-30T11:56:25.745Z,2.40
2018-07-30T11:57:25.739Z,2.60
2018-07-30T11:58:25.718Z,2.90
2018-07-30T11:59:25.727Z,2.70
2018-07-30T12:00:25.698Z,2.60
2018-07-30T12:01:25.759Z,2.60
2018-07-30T12:02:25.687Z,2.60
2018-07-30T12:03:25.720Z,2.60
2018-07-30T12:04:25.672Z,2.80
2018-07-30T12:05:25.664Z,2.40
2018-07-30T12:06:25.658Z,2.80
2018-07-30T12:07:26.383Z,3.00
2018-07-30T12:08:25.642Z,2.50
2018-07-30T12:09:25.673Z,2.80
2018-07-30T12:10:25.625Z,2.60
2018-07-30T12:11:25.616Z,2.60
2018-07-30T12:12:25.633Z,2.80
2018-07-30T12:13:25.600Z,2.60
2018-07-30T12:14:25.605Z,2.70
2018-07-30T12:15:25.599Z,2.70
2018-07-30T12:16:25.597Z,2.70
2018-07-30T12:17:25.567Z,2.70
2018-07-30T12:18:25.560Z,2.70
2018-07-30T12:19:25.575Z,2.80
2018-07-30T12:20:25.541Z,2.80
2018-07-30T12:21:25.534Z,2.90
2018-07-30T12:22:25.527Z,2.80
2018-07-30T12:23:25.513Z,2.50
2018-07-30T12:24:25.506Z,2.90
2018-07-30T12:25:25.544Z,2.60
2018-07-30T12:26:25.509Z,2.90
2018-07-30T12:27:25.482Z,2.90
2018-07-30T12:28:25.471Z,2.80
2018-07-30T12:29:25.464Z,2.60
2018-07-30T12:30:25.553Z,2.80
2018-07-30T12:31:25.481Z,2.70
2018-07-30T12:32:25.439Z,2.90
2018-07-30T12:33:25.433Z,2.70
2018-07-30T12:34:25.422Z,2.30
2018-07-30T12:35:25.409Z,2.60
2018-07-30T12:36:25.464Z,2.70
2018-07-30T12:37:25.418Z,2.70
2018-07-30T12:38:25.390Z,2.40
2018-07-30T12:39:25.384Z,2.50
2018-07-30T12:40:25.376Z,2.40
2018-07-30T12:41:25.385Z,2.60
2018-07-30T12:42:25.358Z,2.30
2018-07-30T12:43:25.368Z,2.50
2018-07-30T12:44:25.343Z,2.40
2018-07-30T12:45:25.337Z,2.50
2018-07-30T12:46:25.335Z,2.50
2018-07-30T12:47:25.350Z,2.20
2018-07-30T12:48:25.312Z,2.60
2018-07-30T12:49:25.309Z,2.40
2018-07-30T12:50:25.383Z,2.30
2018-07-30T12:51:25.304Z,2.60
2018-07-30T12:52:25.329Z,2.40
2018-07-30T12:53:25.271Z,2.50
2018-07-30T12:54:25.296Z,2.40
2018-07-30T12:55:25.257Z,2.70
2018-07-30T12:56:25.250Z,2.30
2018-07-30T12:57:25.245Z,2.30
2018-07-30T12:58:25.240Z,2.40
2018-07-30T12:59:25.228Z,2.40
2018-07-30T13:00:25.233Z,2.30
2018-07-30T13:01:25.214Z,2.20
2018-07-30T13:02:25.212Z,2.30
2018-07-30T13:03:25.227Z,2.50
2018-07-30T13:04:25.200Z,2.10
2018-07-30T13:05:25.182Z,2.50
2018-07-30T13:06:25.200Z,2.70
2018-07-30T13:07:25.170Z,2.30
2018-07-30T13:08:25.208Z,2.50
2018-07-30T13:09:25.152Z,2.30
2018-07-30T13:10:25.148Z,2.50
2018-07-30T13:11:25.137Z,2.30
2018-07-30T13:12:25.135Z,2.30
2018-07-30T13:13:25.149Z,2.10
2018-07-30T13:14:25.126Z,2.20
2018-07-30T13:15:25.110Z,2.40
2018-07-30T13:16:25.105Z,2.40
2018-07-30T13:17:25.093Z,2.30
2018-07-30T13:18:25.102Z,2.30